sensor_id;sensor_type;location;lat;lon;timestamp;temperature;humidity
582;DHT22;277;50.074;8.436;2022-09-09T00:02:26;19.80;99.90
582;DHT22;277;50.074;8.436;2022-09-09T00:04:57;19.80;99.90
582;DHT22;277;50.074;8.436;2022-09-09T00:07:31;19.80;99.90
582;DHT22;277;50.074;8.436;2022-09-09T00:10:00;19.60;99.90
582;DHT22;277;50.074;8.436;2022-09-09T00:12:33;19.60;99.90
582;DHT22;277;50.074;8.436;2022-09-09T00:15:02;19.60;99.90
582;DHT22;277;50.074;8.436;2022-09-09T00:17:34;19.60;99.90
582;DHT22;277;50.074;8.436;2022-09-09T00:20:04;19.60;99.90
582;DHT22;277;50.074;8.436;2022-09-09T00:22:33;19.50;99.90
582;DHT22;277;50.074;8.436;2022-09-09T00:25:02;19.60;99.90
582;DHT22;277;50.074;8.436;2022-09-09T00:27:39;19.60;99.90
582;DHT22;277;50.074;8.436;2022-09-09T00:30:13;19.80;99.90
582;DHT22;277;50.074;8.436;2022-09-09T00:32:41;19.80;99.90
582;DHT22;277;50.074;8.436;2022-09-09T00:35:13;19.60;99.90
582;DHT22;277;50.074;8.436;2022-09-09T00:37:42;19.60;99.90
582;DHT22;277;50.074;8.436;2022-09-09T00:40:15;19.70;99.90
582;DHT22;277;50.074;8.436;2022-09-09T00:42:47;19.60;99.90
582;DHT22;277;50.074;8.436;2022-09-09T00:45:27;19.80;99.90
582;DHT22;277;50.074;8.436;2022-09-09T00:47:59;19.80;99.90
582;DHT22;277;50.074;8.436;2022-09-09T00:50:34;19.60;99.90
582;DHT22;277;50.074;8.436;2022-09-09T00:53:05;19.60;99.90
582;DHT22;277;50.074;8.436;2022-09-09T00:55:40;19.40;99.90
582;DHT22;277;50.074;8.436;2022-09-09T00:58:11;19.50;99.90
582;DHT22;277;50.074;8.436;2022-09-09T01:00:41;19.50;99.90
582;DHT22;277;50.074;8.436;2022-09-09T01:03:14;19.50;99.90
582;DHT22;277;50.074;8.436;2022-09-09T01:05:48;19.30;99.90
582;DHT22;277;50.074;8.436;2022-09-09T01:08:24;19.20;99.90
582;DHT22;277;50.074;8.436;2022-09-09T01:10:55;19.20;99.90
582;DHT22;277;50.074;8.436;2022-09-09T01:13:26;19.10;99.90
582;DHT22;277;50.074;8.436;2022-09-09T01:15:56;19.20;99.90
582;DHT22;277;50.074;8.436;2022-09-09T01:18:28;19.30;99.90
582;DHT22;277;50.074;8.436;2022-09-09T01:21:00;19.30;99.90
582;DHT22;277;50.074;8.436;2022-09-09T01:23:35;19.20;99.90
582;DHT22;277;50.074;8.436;2022-09-09T01:26:14;19.20;99.90
582;DHT22;277;50.074;8.436;2022-09-09T01:28:43;18.90;99.90
582;DHT22;277;50.074;8.436;2022-09-09T01:31:14;18.80;99.90
582;DHT22;277;50.074;8.436;2022-09-09T01:33:43;19.00;99.90
582;DHT22;277;50.074;8.436;2022-09-09T01:36:11;19.20;99.90
582;DHT22;277;50.074;8.436;2022-09-09T01:38:40;19.10;99.90
582;DHT22;277;50.074;8.436;2022-09-09T01:41:08;19.20;99.90
582;DHT22;277;50.074;8.436;2022-09-09T01:43:37;19.20;99.90
582;DHT22;277;50.074;8.436;2022-09-09T01:46:04;19.10;99.90
582;DHT22;277;50.074;8.436;2022-09-09T01:48:32;19.20;99.90
582;DHT22;277;50.074;8.436;2022-09-09T01:51:00;19.40;99.90
582;DHT22;277;50.074;8.436;2022-09-09T01:53:28;19.10;99.90
582;DHT22;277;50.074;8.436;2022-09-09T01:55:59;19.00;99.90
582;DHT22;277;50.074;8.436;2022-09-09T01:58:32;19.10;99.90
582;DHT22;277;50.074;8.436;2022-09-09T02:01:05;19.20;99.90
582;DHT22;277;50.074;8.436;2022-09-09T02:03:34;19.10;99.90
582;DHT22;277;50.074;8.436;2022-09-09T02:06:05;19.30;99.90
582;DHT22;277;50.074;8.436;2022-09-09T02:08:39;19.10;99.90
582;DHT22;277;50.074;8.436;2022-09-09T02:11:10;19.10;99.90
582;DHT22;277;50.074;8.436;2022-09-09T02:13:39;19.10;99.90
582;DHT22;277;50.074;8.436;2022-09-09T02:16:09;19.10;99.90
582;DHT22;277;50.074;8.436;2022-09-09T02:18:38;19.20;99.90
582;DHT22;277;50.074;8.436;2022-09-09T02:21:07;19.10;99.90
582;DHT22;277;50.074;8.436;2022-09-09T02:23:38;19.10;99.90
582;DHT22;277;50.074;8.436;2022-09-09T02:26:07;19.10;99.90
582;DHT22;277;50.074;8.436;2022-09-09T02:28:36;19.10;99.90
582;DHT22;277;50.074;8.436;2022-09-09T02:31:04;19.10;99.90
582;DHT22;277;50.074;8.436;2022-09-09T02:33:35;19.10;99.90
582;DHT22;277;50.074;8.436;2022-09-09T02:36:04;19.10;99.90
582;DHT22;277;50.074;8.436;2022-09-09T02:38:33;19.20;99.90
582;DHT22;277;50.074;8.436;2022-09-09T02:41:02;19.30;99.90
582;DHT22;277;50.074;8.436;2022-09-09T02:43:31;19.20;99.90
582;DHT22;277;50.074;8.436;2022-09-09T02:46:03;19.20;99.90
582;DHT22;277;50.074;8.436;2022-09-09T02:48:34;19.20;99.90
582;DHT22;277;50.074;8.436;2022-09-09T02:51:09;19.20;99.90
582;DHT22;277;50.074;8.436;2022-09-09T02:53:39;19.30;99.90
582;DHT22;277;50.074;8.436;2022-09-09T02:56:11;19.30;99.90
582;DHT22;277;50.074;8.436;2022-09-09T02:58:41;19.30;99.90
582;DHT22;277;50.074;8.436;2022-09-09T03:01:09;19.40;99.90
582;DHT22;277;50.074;8.436;2022-09-09T03:03:37;19.50;99.90
582;DHT22;277;50.074;8.436;2022-09-09T03:06:06;19.40;99.90
582;DHT22;277;50.074;8.436;2022-09-09T03:08:35;19.60;99.90
582;DHT22;277;50.074;8.436;2022-09-09T03:11:03;19.50;99.90
582;DHT22;277;50.074;8.436;2022-09-09T03:13:31;19.30;99.90
582;DHT22;277;50.074;8.436;2022-09-09T03:15:59;19.20;99.90
582;DHT22;277;50.074;8.436;2022-09-09T03:18:26;19.30;99.90
582;DHT22;277;50.074;8.436;2022-09-09T03:20:54;19.30;99.90
582;DHT22;277;50.074;8.436;2022-09-09T03:23:22;19.00;99.90
582;DHT22;277;50.074;8.436;2022-09-09T03:25:52;19.00;99.90
582;DHT22;277;50.074;8.436;2022-09-09T03:28:23;19.00;99.90
582;DHT22;277;50.074;8.436;2022-09-09T03:30:58;19.00;99.90
582;DHT22;277;50.074;8.436;2022-09-09T03:33:26;19.00;99.90
582;DHT22;277;50.074;8.436;2022-09-09T03:35:54;19.10;99.90
582;DHT22;277;50.074;8.436;2022-09-09T03:38:23;19.10;99.90
582;DHT22;277;50.074;8.436;2022-09-09T03:40:52;19.30;99.90
582;DHT22;277;50.074;8.436;2022-09-09T03:43:21;19.30;99.90
582;DHT22;277;50.074;8.436;2022-09-09T03:45:50;19.30;99.90
582;DHT22;277;50.074;8.436;2022-09-09T03:48:18;19.20;99.90
582;DHT22;277;50.074;8.436;2022-09-09T03:50:46;19.20;99.90
582;DHT22;277;50.074;8.436;2022-09-09T03:53:14;19.00;99.90
582;DHT22;277;50.074;8.436;2022-09-09T03:55:43;18.80;99.90
582;DHT22;277;50.074;8.436;2022-09-09T03:58:13;18.90;99.90
582;DHT22;277;50.074;8.436;2022-09-09T04:00:41;18.90;99.90
582;DHT22;277;50.074;8.436;2022-09-09T04:03:11;18.90;99.90
582;DHT22;277;50.074;8.436;2022-09-09T04:05:39;18.80;99.90
582;DHT22;277;50.074;8.436;2022-09-09T04:08:08;18.90;99.90
582;DHT22;277;50.074;8.436;2022-09-09T04:10:38;19.00;99.90
582;DHT22;277;50.074;8.436;2022-09-09T04:13:05;18.90;99.90
582;DHT22;277;50.074;8.436;2022-09-09T04:15:34;19.00;99.90
582;DHT22;277;50.074;8.436;2022-09-09T04:18:03;19.10;99.90
582;DHT22;277;50.074;8.436;2022-09-09T04:20:32;19.00;99.90
582;DHT22;277;50.074;8.436;2022-09-09T04:23:00;19.20;99.90
582;DHT22;277;50.074;8.436;2022-09-09T04:25:27;19.30;99.90
582;DHT22;277;50.074;8.436;2022-09-09T04:27:55;19.30;99.90
582;DHT22;277;50.074;8.436;2022-09-09T04:30:24;19.40;99.90
582;DHT22;277;50.074;8.436;2022-09-09T04:32:53;19.60;99.90
582;DHT22;277;50.074;8.436;2022-09-09T04:35:20;19.60;99.90
582;DHT22;277;50.074;8.436;2022-09-09T04:37:49;19.50;99.90
582;DHT22;277;50.074;8.436;2022-09-09T04:40:17;19.40;99.90
582;DHT22;277;50.074;8.436;2022-09-09T04:42:44;19.30;99.90
582;DHT22;277;50.074;8.436;2022-09-09T04:45:14;19.10;99.90
582;DHT22;277;50.074;8.436;2022-09-09T04:47:42;19.00;99.90
582;DHT22;277;50.074;8.436;2022-09-09T04:50:11;18.90;99.90
582;DHT22;277;50.074;8.436;2022-09-09T04:52:39;18.90;99.90
582;DHT22;277;50.074;8.436;2022-09-09T04:55:07;19.00;99.90
582;DHT22;277;50.074;8.436;2022-09-09T04:57:35;19.10;99.90
582;DHT22;277;50.074;8.436;2022-09-09T05:00:03;19.30;99.90
582;DHT22;277;50.074;8.436;2022-09-09T05:02:31;19.40;99.90
582;DHT22;277;50.074;8.436;2022-09-09T05:04:59;19.30;99.90
582;DHT22;277;50.074;8.436;2022-09-09T05:07:28;19.30;99.90
582;DHT22;277;50.074;8.436;2022-09-09T05:09:57;19.20;99.90
582;DHT22;277;50.074;8.436;2022-09-09T05:12:25;19.20;99.90
582;DHT22;277;50.074;8.436;2022-09-09T05:14:53;19.00;99.90
582;DHT22;277;50.074;8.436;2022-09-09T05:17:20;19.00;99.90
582;DHT22;277;50.074;8.436;2022-09-09T05:19:48;19.10;99.90
582;DHT22;277;50.074;8.436;2022-09-09T05:22:18;19.30;99.90
582;DHT22;277;50.074;8.436;2022-09-09T05:24:47;18.90;99.90
582;DHT22;277;50.074;8.436;2022-09-09T05:27:17;18.90;99.90
582;DHT22;277;50.074;8.436;2022-09-09T05:29:45;18.80;99.90
582;DHT22;277;50.074;8.436;2022-09-09T05:32:14;18.50;99.90
582;DHT22;277;50.074;8.436;2022-09-09T05:34:43;18.60;99.90
582;DHT22;277;50.074;8.436;2022-09-09T05:37:11;18.60;99.90
582;DHT22;277;50.074;8.436;2022-09-09T05:39:38;18.60;99.90
582;DHT22;277;50.074;8.436;2022-09-09T05:42:07;18.70;99.90
582;DHT22;277;50.074;8.436;2022-09-09T05:44:35;18.80;99.90
582;DHT22;277;50.074;8.436;2022-09-09T05:47:03;18.80;99.90
582;DHT22;277;50.074;8.436;2022-09-09T05:49:31;18.90;99.90
582;DHT22;277;50.074;8.436;2022-09-09T05:51:59;19.00;99.90
582;DHT22;277;50.074;8.436;2022-09-09T05:54:27;19.00;99.90
582;DHT22;277;50.074;8.436;2022-09-09T05:56:54;19.20;99.90
582;DHT22;277;50.074;8.436;2022-09-09T05:59:23;19.00;99.90
582;DHT22;277;50.074;8.436;2022-09-09T06:01:51;18.80;99.90
582;DHT22;277;50.074;8.436;2022-09-09T06:04:19;18.40;99.90
582;DHT22;277;50.074;8.436;2022-09-09T06:06:48;18.10;99.90
582;DHT22;277;50.074;8.436;2022-09-09T06:09:16;17.90;99.90
582;DHT22;277;50.074;8.436;2022-09-09T06:11:44;17.90;99.90
582;DHT22;277;50.074;8.436;2022-09-09T06:14:12;18.00;99.90
582;DHT22;277;50.074;8.436;2022-09-09T06:16:41;18.00;99.90
582;DHT22;277;50.074;8.436;2022-09-09T06:19:09;18.10;99.90
582;DHT22;277;50.074;8.436;2022-09-09T06:21:38;18.10;99.90
582;DHT22;277;50.074;8.436;2022-09-09T06:24:06;17.90;99.90
582;DHT22;277;50.074;8.436;2022-09-09T06:26:35;18.00;99.90
582;DHT22;277;50.074;8.436;2022-09-09T06:29:03;17.90;99.90
582;DHT22;277;50.074;8.436;2022-09-09T06:31:33;17.70;99.90
582;DHT22;277;50.074;8.436;2022-09-09T06:34:03;17.50;99.90
582;DHT22;277;50.074;8.436;2022-09-09T06:36:32;17.50;99.90
582;DHT22;277;50.074;8.436;2022-09-09T06:39:01;17.20;99.90
582;DHT22;277;50.074;8.436;2022-09-09T06:41:29;17.20;99.90
582;DHT22;277;50.074;8.436;2022-09-09T06:43:57;17.10;99.90
582;DHT22;277;50.074;8.436;2022-09-09T06:46:25;17.20;99.90
582;DHT22;277;50.074;8.436;2022-09-09T06:48:55;17.20;99.90
582;DHT22;277;50.074;8.436;2022-09-09T06:51:25;17.30;99.90
582;DHT22;277;50.074;8.436;2022-09-09T06:53:54;17.50;99.90
582;DHT22;277;50.074;8.436;2022-09-09T06:56:23;17.50;99.90
582;DHT22;277;50.074;8.436;2022-09-09T06:58:51;17.60;99.90
582;DHT22;277;50.074;8.436;2022-09-09T07:01:20;17.60;99.90
582;DHT22;277;50.074;8.436;2022-09-09T07:03:50;17.60;99.90
582;DHT22;277;50.074;8.436;2022-09-09T07:06:18;17.60;99.90
582;DHT22;277;50.074;8.436;2022-09-09T07:08:51;17.60;99.90
582;DHT22;277;50.074;8.436;2022-09-09T07:11:23;17.60;99.90
582;DHT22;277;50.074;8.436;2022-09-09T07:13:52;17.60;99.90
582;DHT22;277;50.074;8.436;2022-09-09T07:16:20;17.60;99.90
582;DHT22;277;50.074;8.436;2022-09-09T07:18:50;17.60;99.90
582;DHT22;277;50.074;8.436;2022-09-09T07:21:18;17.50;99.90
582;DHT22;277;50.074;8.436;2022-09-09T07:23:47;17.40;99.90
582;DHT22;277;50.074;8.436;2022-09-09T07:26:17;17.50;99.90
582;DHT22;277;50.074;8.436;2022-09-09T07:28:45;17.70;99.90
582;DHT22;277;50.074;8.436;2022-09-09T07:31:14;17.70;99.90
582;DHT22;277;50.074;8.436;2022-09-09T07:33:43;17.80;99.90
582;DHT22;277;50.074;8.436;2022-09-09T07:36:12;17.80;99.90
582;DHT22;277;50.074;8.436;2022-09-09T07:38:41;17.90;99.90
582;DHT22;277;50.074;8.436;2022-09-09T07:41:10;17.80;99.90
582;DHT22;277;50.074;8.436;2022-09-09T07:43:40;17.70;99.90
582;DHT22;277;50.074;8.436;2022-09-09T07:46:08;17.80;99.90
582;DHT22;277;50.074;8.436;2022-09-09T07:48:36;17.80;99.90
582;DHT22;277;50.074;8.436;2022-09-09T07:51:08;18.00;99.90
582;DHT22;277;50.074;8.436;2022-09-09T07:53:37;18.00;99.90
582;DHT22;277;50.074;8.436;2022-09-09T07:56:05;18.10;99.90
582;DHT22;277;50.074;8.436;2022-09-09T07:58:33;18.00;99.90
582;DHT22;277;50.074;8.436;2022-09-09T08:01:09;17.90;99.90
582;DHT22;277;50.074;8.436;2022-09-09T08:03:38;17.80;99.90
582;DHT22;277;50.074;8.436;2022-09-09T08:06:06;17.80;99.90
582;DHT22;277;50.074;8.436;2022-09-09T08:08:35;17.80;99.90
582;DHT22;277;50.074;8.436;2022-09-09T08:11:06;17.90;99.90
582;DHT22;277;50.074;8.436;2022-09-09T08:13:34;17.80;99.90
582;DHT22;277;50.074;8.436;2022-09-09T08:16:06;17.80;99.90
582;DHT22;277;50.074;8.436;2022-09-09T08:18:35;18.00;99.90
582;DHT22;277;50.074;8.436;2022-09-09T08:21:08;18.10;99.90
582;DHT22;277;50.074;8.436;2022-09-09T08:23:38;18.20;99.90
582;DHT22;277;50.074;8.436;2022-09-09T08:26:09;18.40;99.90
582;DHT22;277;50.074;8.436;2022-09-09T08:28:37;18.30;99.90
582;DHT22;277;50.074;8.436;2022-09-09T08:31:06;18.30;99.90
582;DHT22;277;50.074;8.436;2022-09-09T08:33:36;18.20;99.90
582;DHT22;277;50.074;8.436;2022-09-09T08:36:05;18.10;99.90
582;DHT22;277;50.074;8.436;2022-09-09T08:38:33;18.10;99.90
582;DHT22;277;50.074;8.436;2022-09-09T08:41:07;17.90;99.90
582;DHT22;277;50.074;8.436;2022-09-09T08:43:36;18.00;99.90
582;DHT22;277;50.074;8.436;2022-09-09T08:46:05;18.10;99.90
582;DHT22;277;50.074;8.436;2022-09-09T08:48:42;18.20;99.90
582;DHT22;277;50.074;8.436;2022-09-09T08:51:11;18.30;99.90
582;DHT22;277;50.074;8.436;2022-09-09T08:53:41;18.30;99.90
582;DHT22;277;50.074;8.436;2022-09-09T08:56:10;18.50;99.90
582;DHT22;277;50.074;8.436;2022-09-09T08:58:41;18.50;99.90
582;DHT22;277;50.074;8.436;2022-09-09T09:04:00;18.50;99.90
582;DHT22;277;50.074;8.436;2022-09-09T09:06:35;18.40;99.90
582;DHT22;277;50.074;8.436;2022-09-09T09:09:06;18.30;99.90
582;DHT22;277;50.074;8.436;2022-09-09T09:11:36;18.40;99.90
582;DHT22;277;50.074;8.436;2022-09-09T09:14:07;18.30;99.90
582;DHT22;277;50.074;8.436;2022-09-09T09:16:38;18.40;99.90
582;DHT22;277;50.074;8.436;2022-09-09T09:19:09;18.70;99.90
582;DHT22;277;50.074;8.436;2022-09-09T09:21:41;19.00;99.90
582;DHT22;277;50.074;8.436;2022-09-09T09:24:13;19.00;99.90
582;DHT22;277;50.074;8.436;2022-09-09T09:26:47;19.10;99.90
582;DHT22;277;50.074;8.436;2022-09-09T09:29:15;19.50;99.90
582;DHT22;277;50.074;8.436;2022-09-09T09:31:45;19.80;99.90
582;DHT22;277;50.074;8.436;2022-09-09T09:34:15;19.80;99.90
582;DHT22;277;50.074;8.436;2022-09-09T09:36:45;19.70;99.90
582;DHT22;277;50.074;8.436;2022-09-09T09:39:22;19.70;99.90
582;DHT22;277;50.074;8.436;2022-09-09T09:42:10;20.20;99.90
582;DHT22;277;50.074;8.436;2022-09-09T09:44:40;20.60;99.90
582;DHT22;277;50.074;8.436;2022-09-09T09:47:10;21.00;99.90
582;DHT22;277;50.074;8.436;2022-09-09T09:49:40;21.50;99.90
582;DHT22;277;50.074;8.436;2022-09-09T09:52:19;22.00;99.90
582;DHT22;277;50.074;8.436;2022-09-09T09:54:48;22.10;99.90
582;DHT22;277;50.074;8.436;2022-09-09T09:57:16;22.00;99.90
582;DHT22;277;50.074;8.436;2022-09-09T09:59:44;22.10;99.90
582;DHT22;277;50.074;8.436;2022-09-09T10:02:13;22.00;99.90
582;DHT22;277;50.074;8.436;2022-09-09T10:04:43;21.90;99.90
582;DHT22;277;50.074;8.436;2022-09-09T10:07:13;21.70;99.90
582;DHT22;277;50.074;8.436;2022-09-09T10:09:40;21.40;99.90
582;DHT22;277;50.074;8.436;2022-09-09T10:12:11;21.10;99.90
582;DHT22;277;50.074;8.436;2022-09-09T10:14:42;20.90;99.90
582;DHT22;277;50.074;8.436;2022-09-09T10:17:17;20.70;99.90
582;DHT22;277;50.074;8.436;2022-09-09T10:19:53;20.60;99.90
582;DHT22;277;50.074;8.436;2022-09-09T10:22:26;20.60;99.90
582;DHT22;277;50.074;8.436;2022-09-09T10:24:59;20.60;99.90
582;DHT22;277;50.074;8.436;2022-09-09T10:27:30;20.60;99.90
582;DHT22;277;50.074;8.436;2022-09-09T10:30:01;20.40;99.90
582;DHT22;277;50.074;8.436;2022-09-09T10:32:40;20.40;99.90
582;DHT22;277;50.074;8.436;2022-09-09T10:35:14;20.40;99.90
582;DHT22;277;50.074;8.436;2022-09-09T10:37:48;20.50;99.90
582;DHT22;277;50.074;8.436;2022-09-09T10:40:23;20.80;99.90
582;DHT22;277;50.074;8.436;2022-09-09T10:42:54;20.70;99.90
582;DHT22;277;50.074;8.436;2022-09-09T10:45:26;20.70;99.90
582;DHT22;277;50.074;8.436;2022-09-09T10:48:03;21.10;99.90
582;DHT22;277;50.074;8.436;2022-09-09T10:50:42;21.70;99.90
582;DHT22;277;50.074;8.436;2022-09-09T10:53:34;22.30;99.90
582;DHT22;277;50.074;8.436;2022-09-09T10:56:04;22.80;99.90
582;DHT22;277;50.074;8.436;2022-09-09T10:58:35;23.20;99.90
582;DHT22;277;50.074;8.436;2022-09-09T11:01:07;23.30;99.90
582;DHT22;277;50.074;8.436;2022-09-09T11:03:37;23.50;99.90
582;DHT22;277;50.074;8.436;2022-09-09T11:06:09;23.60;99.90
582;DHT22;277;50.074;8.436;2022-09-09T11:08:40;23.60;99.90
582;DHT22;277;50.074;8.436;2022-09-09T11:11:09;23.70;99.90
582;DHT22;277;50.074;8.436;2022-09-09T11:13:39;24.00;99.90
582;DHT22;277;50.074;8.436;2022-09-09T11:16:14;24.10;99.90
582;DHT22;277;50.074;8.436;2022-09-09T11:18:43;24.30;99.90
582;DHT22;277;50.074;8.436;2022-09-09T11:21:16;24.20;99.90
582;DHT22;277;50.074;8.436;2022-09-09T11:23:45;24.40;99.90
582;DHT22;277;50.074;8.436;2022-09-09T11:26:17;24.70;99.90
582;DHT22;277;50.074;8.436;2022-09-09T11:28:51;24.30;99.90
582;DHT22;277;50.074;8.436;2022-09-09T11:31:35;24.20;99.90
582;DHT22;277;50.074;8.436;2022-09-09T11:37:06;24.90;99.90
582;DHT22;277;50.074;8.436;2022-09-09T11:39:38;24.70;99.90
582;DHT22;277;50.074;8.436;2022-09-09T11:42:14;24.50;99.90
582;DHT22;277;50.074;8.436;2022-09-09T11:44:43;24.00;99.90
582;DHT22;277;50.074;8.436;2022-09-09T11:47:16;23.80;99.90
582;DHT22;277;50.074;8.436;2022-09-09T11:49:46;23.60;99.90
582;DHT22;277;50.074;8.436;2022-09-09T11:52:21;23.50;99.90
582;DHT22;277;50.074;8.436;2022-09-09T11:54:49;23.20;99.90
582;DHT22;277;50.074;8.436;2022-09-09T11:57:22;23.10;99.90
582;DHT22;277;50.074;8.436;2022-09-09T11:59:51;22.90;99.90
582;DHT22;277;50.074;8.436;2022-09-09T12:02:21;22.60;99.90
582;DHT22;277;50.074;8.436;2022-09-09T12:04:54;22.30;99.90
582;DHT22;277;50.074;8.436;2022-09-09T12:07:28;22.30;99.90
582;DHT22;277;50.074;8.436;2022-09-09T12:09:58;22.30;99.90
582;DHT22;277;50.074;8.436;2022-09-09T12:12:28;22.20;99.90
582;DHT22;277;50.074;8.436;2022-09-09T12:15:00;22.00;99.90
582;DHT22;277;50.074;8.436;2022-09-09T12:17:29;22.00;99.90
582;DHT22;277;50.074;8.436;2022-09-09T12:20:01;21.80;99.90
582;DHT22;277;50.074;8.436;2022-09-09T12:22:35;21.60;99.90
582;DHT22;277;50.074;8.436;2022-09-09T12:25:08;21.60;99.90
582;DHT22;277;50.074;8.436;2022-09-09T12:27:40;21.40;99.90
582;DHT22;277;50.074;8.436;2022-09-09T12:30:14;21.00;99.90
582;DHT22;277;50.074;8.436;2022-09-09T12:32:42;20.10;99.90
582;DHT22;277;50.074;8.436;2022-09-09T12:35:11;19.40;99.90
582;DHT22;277;50.074;8.436;2022-09-09T12:37:41;19.10;99.90
582;DHT22;277;50.074;8.436;2022-09-09T12:40:19;19.00;99.90
582;DHT22;277;50.074;8.436;2022-09-09T12:42:47;19.10;99.90
582;DHT22;277;50.074;8.436;2022-09-09T12:45:15;19.10;99.90
582;DHT22;277;50.074;8.436;2022-09-09T12:47:45;19.20;99.90
582;DHT22;277;50.074;8.436;2022-09-09T12:50:17;19.10;99.90
582;DHT22;277;50.074;8.436;2022-09-09T12:52:48;19.00;99.90
582;DHT22;277;50.074;8.436;2022-09-09T12:55:18;19.00;99.90
582;DHT22;277;50.074;8.436;2022-09-09T12:57:46;19.10;99.90
582;DHT22;277;50.074;8.436;2022-09-09T13:00:17;19.20;99.90
582;DHT22;277;50.074;8.436;2022-09-09T13:02:48;19.50;99.90
582;DHT22;277;50.074;8.436;2022-09-09T13:05:17;19.90;99.90
582;DHT22;277;50.074;8.436;2022-09-09T13:07:45;20.50;99.90
582;DHT22;277;50.074;8.436;2022-09-09T13:10:16;21.10;99.90
582;DHT22;277;50.074;8.436;2022-09-09T13:13:02;21.50;99.90
582;DHT22;277;50.074;8.436;2022-09-09T13:15:31;21.80;99.90
582;DHT22;277;50.074;8.436;2022-09-09T13:18:00;21.50;99.90
582;DHT22;277;50.074;8.436;2022-09-09T13:20:29;21.70;99.90
582;DHT22;277;50.074;8.436;2022-09-09T13:22:57;21.80;99.90
582;DHT22;277;50.074;8.436;2022-09-09T13:25:27;21.80;99.90
582;DHT22;277;50.074;8.436;2022-09-09T13:27:56;22.30;99.90
582;DHT22;277;50.074;8.436;2022-09-09T13:30:26;22.90;99.90
582;DHT22;277;50.074;8.436;2022-09-09T13:33:05;23.20;99.90
582;DHT22;277;50.074;8.436;2022-09-09T13:35:33;23.40;99.90
582;DHT22;277;50.074;8.436;2022-09-09T13:38:06;24.00;99.90
582;DHT22;277;50.074;8.436;2022-09-09T13:40:37;24.30;99.90
582;DHT22;277;50.074;8.436;2022-09-09T13:43:04;24.30;99.90
582;DHT22;277;50.074;8.436;2022-09-09T13:45:32;23.70;99.90
582;DHT22;277;50.074;8.436;2022-09-09T13:48:08;23.70;99.90
582;DHT22;277;50.074;8.436;2022-09-09T13:50:36;23.50;99.90
582;DHT22;277;50.074;8.436;2022-09-09T13:53:04;23.40;99.90
582;DHT22;277;50.074;8.436;2022-09-09T13:55:32;22.80;99.90
582;DHT22;277;50.074;8.436;2022-09-09T13:58:02;22.40;99.90
582;DHT22;277;50.074;8.436;2022-09-09T14:00:32;21.90;99.90
582;DHT22;277;50.074;8.436;2022-09-09T14:03:00;21.40;99.90
582;DHT22;277;50.074;8.436;2022-09-09T14:05:28;21.20;99.90
582;DHT22;277;50.074;8.436;2022-09-09T14:07:57;21.00;99.90
582;DHT22;277;50.074;8.436;2022-09-09T14:10:26;20.90;99.90
582;DHT22;277;50.074;8.436;2022-09-09T14:12:54;20.70;99.90
582;DHT22;277;50.074;8.436;2022-09-09T14:15:23;20.40;99.90
582;DHT22;277;50.074;8.436;2022-09-09T14:17:51;20.20;99.90
582;DHT22;277;50.074;8.436;2022-09-09T14:20:19;20.00;99.90
582;DHT22;277;50.074;8.436;2022-09-09T14:22:47;19.80;99.90
582;DHT22;277;50.074;8.436;2022-09-09T14:25:14;19.60;99.90
582;DHT22;277;50.074;8.436;2022-09-09T14:27:42;19.50;99.90
582;DHT22;277;50.074;8.436;2022-09-09T14:30:12;19.50;99.90
582;DHT22;277;50.074;8.436;2022-09-09T14:32:41;19.40;99.90
582;DHT22;277;50.074;8.436;2022-09-09T14:35:09;19.30;99.90
582;DHT22;277;50.074;8.436;2022-09-09T14:37:36;19.30;99.90
582;DHT22;277;50.074;8.436;2022-09-09T14:40:06;19.50;99.90
582;DHT22;277;50.074;8.436;2022-09-09T14:42:34;19.90;99.90
582;DHT22;277;50.074;8.436;2022-09-09T14:45:01;20.00;99.90
582;DHT22;277;50.074;8.436;2022-09-09T14:47:29;20.20;99.90
582;DHT22;277;50.074;8.436;2022-09-09T14:49:59;20.30;99.90
582;DHT22;277;50.074;8.436;2022-09-09T14:52:27;20.40;99.90
582;DHT22;277;50.074;8.436;2022-09-09T14:54:55;20.40;99.90
582;DHT22;277;50.074;8.436;2022-09-09T14:57:23;20.40;99.90
582;DHT22;277;50.074;8.436;2022-09-09T14:59:51;20.40;99.90
582;DHT22;277;50.074;8.436;2022-09-09T15:02:20;20.50;99.90
582;DHT22;277;50.074;8.436;2022-09-09T15:04:47;20.60;99.90
582;DHT22;277;50.074;8.436;2022-09-09T15:07:17;20.70;99.90
582;DHT22;277;50.074;8.436;2022-09-09T15:09:45;20.70;99.90
582;DHT22;277;50.074;8.436;2022-09-09T15:12:14;20.60;99.90
582;DHT22;277;50.074;8.436;2022-09-09T15:14:44;20.70;99.90
582;DHT22;277;50.074;8.436;2022-09-09T15:17:11;21.00;99.90
582;DHT22;277;50.074;8.436;2022-09-09T15:19:39;21.50;99.90
582;DHT22;277;50.074;8.436;2022-09-09T15:22:08;21.50;99.90
582;DHT22;277;50.074;8.436;2022-09-09T15:24:37;21.60;99.90
582;DHT22;277;50.074;8.436;2022-09-09T15:27:05;22.00;99.90
582;DHT22;277;50.074;8.436;2022-09-09T15:29:32;22.50;99.90
582;DHT22;277;50.074;8.436;2022-09-09T15:32:00;22.50;99.90
582;DHT22;277;50.074;8.436;2022-09-09T15:34:28;22.30;99.90
582;DHT22;277;50.074;8.436;2022-09-09T15:36:56;21.90;99.90
582;DHT22;277;50.074;8.436;2022-09-09T15:39:23;21.90;99.90
582;DHT22;277;50.074;8.436;2022-09-09T15:41:52;21.70;99.90
582;DHT22;277;50.074;8.436;2022-09-09T15:44:20;21.60;99.90
582;DHT22;277;50.074;8.436;2022-09-09T15:46:52;21.40;99.90
582;DHT22;277;50.074;8.436;2022-09-09T15:49:21;21.20;99.90
582;DHT22;277;50.074;8.436;2022-09-09T15:51:51;20.90;99.90
582;DHT22;277;50.074;8.436;2022-09-09T15:54:20;20.70;99.90
582;DHT22;277;50.074;8.436;2022-09-09T15:56:50;20.50;99.90
582;DHT22;277;50.074;8.436;2022-09-09T15:59:20;20.40;99.90
582;DHT22;277;50.074;8.436;2022-09-09T16:01:47;20.20;99.90
582;DHT22;277;50.074;8.436;2022-09-09T16:04:17;20.10;99.90
582;DHT22;277;50.074;8.436;2022-09-09T16:06:50;20.00;99.90
582;DHT22;277;50.074;8.436;2022-09-09T16:09:18;19.90;99.90
582;DHT22;277;50.074;8.436;2022-09-09T16:11:46;19.80;99.90
582;DHT22;277;50.074;8.436;2022-09-09T16:14:14;19.70;99.90
582;DHT22;277;50.074;8.436;2022-09-09T16:16:44;19.60;99.90
582;DHT22;277;50.074;8.436;2022-09-09T16:19:12;19.60;99.90
582;DHT22;277;50.074;8.436;2022-09-09T16:21:40;19.60;99.90
582;DHT22;277;50.074;8.436;2022-09-09T16:24:09;19.50;99.90
582;DHT22;277;50.074;8.436;2022-09-09T16:26:38;19.40;99.90
582;DHT22;277;50.074;8.436;2022-09-09T16:29:06;19.40;99.90
582;DHT22;277;50.074;8.436;2022-09-09T16:31:35;19.30;99.90
582;DHT22;277;50.074;8.436;2022-09-09T16:34:04;19.20;99.90
582;DHT22;277;50.074;8.436;2022-09-09T16:36:32;19.20;99.90
582;DHT22;277;50.074;8.436;2022-09-09T16:39:02;19.20;99.90
582;DHT22;277;50.074;8.436;2022-09-09T16:41:30;19.20;99.90
582;DHT22;277;50.074;8.436;2022-09-09T16:43:59;19.20;99.90
582;DHT22;277;50.074;8.436;2022-09-09T16:46:29;19.20;99.90
582;DHT22;277;50.074;8.436;2022-09-09T16:48:57;19.20;99.90
582;DHT22;277;50.074;8.436;2022-09-09T16:51:27;19.10;99.90
582;DHT22;277;50.074;8.436;2022-09-09T16:53:57;19.00;99.90
582;DHT22;277;50.074;8.436;2022-09-09T16:56:25;18.90;99.90
582;DHT22;277;50.074;8.436;2022-09-09T16:58:54;19.00;99.90